Vejrstation Sortsø Strand
Vejrstation Sortsø Strands historiske vejrdata
 
Daily Summary for June 27, 2022 Units:  Metric    English   Both
Daily Weekly Monthly Yearly Custom
  Current: High: Low: Average:
Temperature: 20.8 °C 26.4 °C 18.3 °C 21.7 °C
Dew Point: 18.4 °C 22.4 °C 16.4 °C 18.9 °C
Humidity: 86% 90% 76% 84%
Wind Speed: 30km/h 30km/h 0km/h 9.7km/h
Wind Gust: 17km/h 22km/h - -
WindWSW - - SSE
Pressure: 1012.4 hPa 1014.8 hPa 1011.3 hPa -
Precipitation: 9.14 mm      
Historical Graphs
 
 
Tabular Data for June 27, 2022
Time Temperature Dew Point Pressure Wind Wind Speed Wind Gust Humidity Rainfall Rate (Hourly) solar
00:04 19.4 °C 17.4 °C 1014.8 hPa Calm     88% 0.00 mm 0.00 W/m2
00:09 19.4 °C 17.4 °C 1014.8 hPa Calm     88% 0.00 mm 0.00 W/m2
00:14 19.4 °C 17.4 °C 1014.8 hPa Calm     88% 0.00 mm 0.00 W/m2
00:19 19.7 °C 17.8 °C 1014.8 hPa Calm     89% 0.00 mm 0.00 W/m2
00:24 19.8 °C 17.9 °C 1014.8 hPa Calm     89% 0.00 mm 0.00 W/m2
00:29 19.8 °C 17.9 °C 1014.8 hPa Calm     89% 0.00 mm 0.00 W/m2
00:34 19.8 °C 17.9 °C 1014.7 hPa Calm     89% 0.00 mm 0.00 W/m2
00:39 19.7 °C 17.8 °C 1014.7 hPa Calm     89% 0.00 mm 0.00 W/m2
00:44 19.6 °C 17.7 °C 1014.8 hPa Calm     89% 0.00 mm 0.00 W/m2
00:49 19.5 °C 17.6 °C 1014.8 hPa Calm     89% 0.00 mm 0.00 W/m2
00:54 19.4 °C 17.6 °C 1014.7 hPa Calm     89% 0.00 mm 0.00 W/m2
00:59 19.4 °C 17.6 °C 1014.7 hPa Calm     89% 0.00 mm 0.00 W/m2
01:04 19.4 °C 17.6 °C 1014.7 hPa Calm     89% 0.00 mm 0.00 W/m2
01:09 19.4 °C 17.6 °C 1014.7 hPa Calm     89% 0.00 mm 0.00 W/m2
01:14 19.4 °C 17.6 °C 1014.7 hPa Calm     89% 0.00 mm 0.00 W/m2
01:19 19.4 °C 17.6 °C 1014.7 hPa Calm     89% 0.00 mm 0.00 W/m2
01:24 19.4 °C 17.6 °C 1014.6 hPa Calm     89% 0.00 mm 0.00 W/m2
01:29 19.3 °C 17.5 °C 1014.7 hPa Calm     89% 0.00 mm 0.00 W/m2
01:34 19.3 °C 17.5 °C 1014.6 hPa Calm     89% 0.00 mm 0.00 W/m2
01:39 19.4 °C 17.6 °C 1014.5 hPa ENE 16 km/h 7 km/h 89% 0.00 mm 0.00 W/m2
01:44 19.4 °C 17.6 °C 1014.5 hPa ENE 17 km/h 14 km/h 89% 0.00 mm 0.00 W/m2
01:49 19.4 °C 17.6 °C 1014.4 hPa NE 17 km/h 14 km/h 89% 0.00 mm 0.00 W/m2
01:54 19.3 °C 17.4 °C 1014.3 hPa NE 15 km/h 11 km/h 89% 0.00 mm 0.00 W/m2
01:59 19.2 °C 17.4 °C 1014.1 hPa NE 13 km/h 11 km/h 89% 0.00 mm 0.00 W/m2
02:04 19.1 °C 17.2 °C 1014.0 hPa NE 11 km/h 10 km/h 89% 0.00 mm 0.00 W/m2
02:09 18.9 °C 17.1 °C 1014.0 hPa NE 6 km/h 6 km/h 89% 0.00 mm 0.00 W/m2
02:14 18.9 °C 17.1 °C 1014.0 hPa Calm     89% 0.00 mm 0.00 W/m2
02:19 18.8 °C 17.0 °C 1014.0 hPa Calm     89% 0.00 mm 0.00 W/m2
02:24 18.8 °C 17.0 °C 1013.9 hPa Calm     89% 0.00 mm 0.00 W/m2
02:29 18.8 °C 17.0 °C 1013.9 hPa Calm     89% 0.00 mm 0.00 W/m2
02:34 18.7 °C 16.9 °C 1013.8 hPa Calm     89% 0.00 mm 0.00 W/m2
02:39 18.8 °C 16.9 °C 1013.7 hPa Calm     89% 0.00 mm 0.00 W/m2
02:44 18.8 °C 16.9 °C 1013.6 hPa Calm     89% 0.00 mm 0.00 W/m2
02:49 18.8 °C 16.9 °C 1013.5 hPa Calm     89% 0.00 mm 0.00 W/m2
02:54 18.7 °C 16.8 °C 1013.4 hPa Calm     89% 0.00 mm 0.00 W/m2
02:59 18.6 °C 16.8 °C 1013.3 hPa Calm     89% 0.00 mm 0.00 W/m2
03:04 18.6 °C 16.7 °C 1013.4 hPa Calm     89% 0.00 mm 0.00 W/m2
03:09 18.6 °C 16.8 °C 1013.4 hPa Calm     89% 0.00 mm 0.00 W/m2
03:14 18.6 °C 16.7 °C 1013.4 hPa NE 10 km/h 2 km/h 89% 0.00 mm 0.00 W/m2
03:19 18.5 °C 16.7 °C 1013.4 hPa NE 11 km/h 11 km/h 89% 0.00 mm 0.00 W/m2
03:24 18.4 °C 16.6 °C 1013.3 hPa NE 11 km/h 10 km/h 89% 0.00 mm 0.00 W/m2
03:29 18.4 °C 16.6 °C 1013.3 hPa NE 11 km/h 10 km/h 89% 0.00 mm 0.00 W/m2
03:34 18.3 °C 16.5 °C 1013.3 hPa NE 9 km/h 7 km/h 89% 0.00 mm 0.00 W/m2
03:39 18.3 °C 16.5 °C 1013.4 hPa NE 10 km/h 8 km/h 89% 0.00 mm 0.00 W/m2
03:44 18.3 °C 16.5 °C 1013.4 hPa NE 8 km/h 6 km/h 89% 0.00 mm 0.00 W/m2
03:49 18.3 °C 16.5 °C 1013.3 hPa Calm     89% 0.00 mm 0.00 W/m2
03:54 18.3 °C 16.4 °C 1013.2 hPa Calm     89% 0.00 mm 0.00 W/m2
03:59 18.3 °C 16.5 °C 1013.2 hPa NE 11 km/h 1 km/h 89% 0.00 mm 0.00 W/m2
04:04 18.5 °C 16.7 °C 1013.1 hPa NE 19 km/h 14 km/h 89% 0.00 mm 0.00 W/m2
04:09 18.6 °C 16.9 °C 1013.1 hPa NE 15 km/h 11 km/h 90% 0.00 mm 0.00 W/m2
04:14 18.7 °C 16.9 °C 1013.1 hPa NE 15 km/h 11 km/h 90% 0.00 mm 0.00 W/m2
04:19 18.8 °C 16.9 °C 1013.0 hPa NE 15 km/h 12 km/h 89% 0.00 mm 0.00 W/m2
04:24 18.8 °C 17.0 °C 1013.1 hPa NE 19 km/h 16 km/h 89% 0.00 mm 0.00 W/m2
04:29 18.9 °C 17.1 °C 1013.0 hPa NE 19 km/h 15 km/h 89% 0.00 mm 0.00 W/m2
04:34 18.9 °C 17.1 °C 1013.0 hPa NE 19 km/h 16 km/h 89% 0.00 mm 0.00 W/m2
04:39 18.9 °C 17.1 °C 1013.0 hPa ENE 19 km/h 13 km/h 89% 0.00 mm 0.00 W/m2
04:44 18.9 °C 17.1 °C 1013.0 hPa ENE 19 km/h 15 km/h 89% 0.00 mm 0.00 W/m2
04:49 18.9 °C 17.1 °C 1013.0 hPa ENE 19 km/h 15 km/h 89% 0.00 mm 0.00 W/m2
04:54 18.9 °C 17.1 °C 1012.9 hPa NE 19 km/h 16 km/h 89% 0.00 mm 0.00 W/m2
04:59 18.9 °C 17.1 °C 1012.8 hPa NE 20 km/h 17 km/h 89% 0.00 mm 0.00 W/m2
05:04 18.8 °C 17.0 °C 1012.8 hPa NE 19 km/h 16 km/h 89% 0.00 mm 0.00 W/m2
05:09 18.8 °C 17.0 °C 1012.8 hPa NE 21 km/h 16 km/h 89% 0.00 mm 0.00 W/m2
05:14 18.9 °C 17.1 °C 1012.9 hPa NE 19 km/h 15 km/h 89% 0.00 mm 0.00 W/m2
05:19 18.9 °C 17.1 °C 1012.8 hPa NE 15 km/h 13 km/h 89% 0.00 mm 0.00 W/m2
05:24 19.1 °C 17.2 °C 1012.9 hPa NE 13 km/h 10 km/h 89% 0.00 mm 0.00 W/m2
05:29 19.2 °C 17.3 °C 1013.0 hPa NE 8 km/h 7 km/h 89% 0.00 mm 0.00 W/m2
05:34 19.3 °C 17.4 °C 1013.0 hPa Calm     89% 0.00 mm 0.00 W/m2
05:39 19.3 °C 17.5 °C 1013.0 hPa Calm     89% 0.00 mm 0.00 W/m2
05:44 19.4 °C 17.6 °C 1013.1 hPa Calm     89% 0.00 mm 0.00 W/m2
05:49 19.4 °C 17.6 °C 1013.2 hPa Calm     89% 0.00 mm 0.00 W/m2
05:54 19.5 °C 17.6 °C 1013.2 hPa Calm     89% 0.00 mm 0.00 W/m2
05:59 19.6 °C 17.6 °C 1013.1 hPa Calm     89% 0.00 mm 0.00 W/m2
06:04 19.7 °C 17.6 °C 1013.1 hPa Calm     88% 0.00 mm 0.00 W/m2
06:09 19.7 °C 17.7 °C 1012.9 hPa Calm     88% 0.00 mm 0.00 W/m2
06:14 19.7 °C 17.7 °C 1013.0 hPa Calm     88% 0.00 mm 0.00 W/m2
06:19 19.8 °C 17.7 °C 1013.0 hPa Calm     88% 0.00 mm 0.00 W/m2
06:24 19.9 °C 17.9 °C 1012.9 hPa Calm     88% 0.00 mm 0.00 W/m2
06:29 20.1 °C 18.0 °C 1012.9 hPa Calm     88% 0.00 mm 0.00 W/m2
06:34 20.1 °C 18.0 °C 1012.8 hPa Calm     88% 0.00 mm 0.00 W/m2
06:39 20.2 °C 18.0 °C 1012.8 hPa Calm     87% 0.00 mm 0.00 W/m2
06:44 20.3 °C 18.1 °C 1012.7 hPa Calm     87% 0.00 mm 0.00 W/m2
06:49 20.3 °C 18.1 °C 1012.6 hPa Calm     87% 0.00 mm 0.00 W/m2
06:54 20.3 °C 18.1 °C 1012.5 hPa Calm     87% 0.00 mm 0.00 W/m2
06:59 20.2 °C 17.8 °C 1012.5 hPa Calm     86% 0.00 mm 0.00 W/m2
07:04 20.2 °C 17.8 °C 1012.4 hPa Calm     86% 0.00 mm 0.00 W/m2
07:09 20.2 °C 17.7 °C 1012.4 hPa Calm     86% 0.00 mm 0.00 W/m2
07:14 20.2 °C 17.8 °C 1012.4 hPa Calm     86% 0.00 mm 0.00 W/m2
07:19 20.2 °C 17.8 °C 1012.3 hPa Calm     86% 0.00 mm 0.00 W/m2
07:24 20.2 °C 17.7 °C 1012.3 hPa Calm     86% 0.00 mm 0.00 W/m2
07:29 20.2 °C 17.7 °C 1012.3 hPa Calm     86% 0.00 mm 0.00 W/m2
07:34 20.2 °C 17.8 °C 1012.4 hPa Calm     86% 0.00 mm 0.00 W/m2
07:39 20.3 °C 17.8 °C 1012.4 hPa Calm     86% 0.00 mm 0.00 W/m2
07:44 20.3 °C 17.8 °C 1012.4 hPa Calm     86% 0.00 mm 0.00 W/m2
07:49 20.3 °C 17.9 °C 1012.5 hPa Calm     86% 0.00 mm 0.00 W/m2
07:54 20.3 °C 17.9 °C 1012.5 hPa ENE 13 km/h 9 km/h 86% 0.00 mm 0.00 W/m2
07:59 20.3 °C 17.8 °C 1012.5 hPa ESE 15 km/h 11 km/h 86% 0.00 mm 0.00 W/m2
08:04 20.4 °C 18.0 °C 1012.6 hPa ESE 13 km/h 10 km/h 86% 0.00 mm 0.00 W/m2
08:09 20.7 °C 18.3 °C 1012.6 hPa ESE 15 km/h 10 km/h 86% 0.00 mm 0.00 W/m2
08:14 20.9 °C 18.5 °C 1012.6 hPa ESE 13 km/h 9 km/h 86% 0.00 mm 0.00 W/m2
08:19 21.2 °C 18.7 °C 1012.6 hPa ESE 13 km/h 8 km/h 86% 0.00 mm 0.00 W/m2
08:24 21.3 °C 18.8 °C 1012.6 hPa ESE 11 km/h 10 km/h 86% 0.00 mm 0.00 W/m2
08:29 21.5 °C 18.9 °C 1012.6 hPa ESE 11 km/h 10 km/h 85% 0.00 mm 0.00 W/m2
08:34 21.6 °C 19.0 °C 1012.7 hPa ESE 11 km/h 10 km/h 85% 0.00 mm 0.00 W/m2
08:39 21.8 °C 19.1 °C 1013.0 hPa ESE 6 km/h   85% 0.00 mm 0.00 W/m2
08:44 21.9 °C 19.1 °C 1013.0 hPa Calm     84% 0.00 mm 0.00 W/m2
08:49 22.0 °C 19.2 °C 1013.2 hPa Calm     84% 0.00 mm 0.00 W/m2
08:54 22.2 °C 19.3 °C 1013.2 hPa Calm     84% 0.00 mm 0.00 W/m2
08:59 22.4 °C 19.6 °C 1012.9 hPa Calm     84% 0.00 mm 0.00 W/m2
09:04 22.6 °C 19.7 °C 1013.0 hPa Calm     84% 0.00 mm 0.00 W/m2
09:09 22.6 °C 19.6 °C 1013.0 hPa Calm     83% 0.00 mm 0.00 W/m2
09:14 22.8 °C 20.0 °C 1012.8 hPa Calm     84% 0.00 mm 0.00 W/m2
09:19 22.8 °C 19.8 °C 1012.8 hPa Calm     83% 0.00 mm 0.00 W/m2
09:24 22.8 °C 19.6 °C 1012.8 hPa Calm     82% 0.00 mm 0.00 W/m2
09:29 22.8 °C 19.6 °C 1012.9 hPa Calm     82% 0.00 mm 0.00 W/m2
09:34 22.7 °C 19.4 °C 1012.9 hPa Calm     82% 0.00 mm 0.00 W/m2
09:39 22.6 °C 19.4 °C 1013.1 hPa SSW 18 km/h 11 km/h 82% 0.00 mm 0.00 W/m2
09:44 22.4 °C 19.2 °C 1013.3 hPa West 19 km/h 12 km/h 82% 0.00 mm 0.00 W/m2
09:49 22.2 °C 19.0 °C 1013.2 hPa WNW 17 km/h 11 km/h 82% 0.00 mm 0.00 W/m2
09:54 21.9 °C 18.9 °C 1013.1 hPa WNW 19 km/h 14 km/h 83% 0.00 mm 0.00 W/m2
09:59 21.7 °C 18.7 °C 1013.1 hPa WNW 19 km/h 14 km/h 83% 0.00 mm 0.00 W/m2
10:04 21.6 °C 18.6 °C 1013.0 hPa NW 21 km/h 16 km/h 83% 0.00 mm 0.00 W/m2
10:09 21.3 °C 18.5 °C 1013.1 hPa NW 23 km/h 15 km/h 84% 0.00 mm 0.00 W/m2
10:14 21.3 °C 18.7 °C 1013.1 hPa NW 19 km/h 15 km/h 85% 0.00 mm 0.00 W/m2
10:19 21.3 °C 18.7 °C 1013.0 hPa NW 19 km/h 13 km/h 85% 0.00 mm 0.00 W/m2
10:24 21.4 °C 18.8 °C 1012.9 hPa NW 19 km/h 11 km/h 85% 0.00 mm 0.00 W/m2
10:29 21.7 °C 19.1 °C 1012.9 hPa NW 17 km/h 14 km/h 85% 0.00 mm 0.00 W/m2
10:34 22.0 °C 19.3 °C 1012.9 hPa WNW 19 km/h 12 km/h 85% 0.00 mm 0.00 W/m2
10:39 22.2 °C 19.4 °C 1012.8 hPa NW 11 km/h 10 km/h 85% 0.00 mm 0.00 W/m2
10:44 22.4 °C 19.6 °C 1012.9 hPa NW 11 km/h 8 km/h 84% 0.00 mm 0.00 W/m2
10:49 22.7 °C 19.8 °C 1012.7 hPa NW 11 km/h 7 km/h 84% 0.00 mm 0.00 W/m2
10:54 22.8 °C 19.7 °C 1012.7 hPa NW 10 km/h 7 km/h 83% 0.00 mm 0.00 W/m2
10:59 23.1 °C 19.9 °C 1012.7 hPa NW 6 km/h 1 km/h 83% 0.00 mm 0.00 W/m2
11:04 23.3 °C 20.1 °C 1012.7 hPa NW 6 km/h 1 km/h 82% 0.00 mm 0.00 W/m2
11:09 23.5 °C 20.2 °C 1012.7 hPa NW 10 km/h 6 km/h 82% 0.00 mm 0.00 W/m2
11:14 23.6 °C 20.2 °C 1012.6 hPa NW 10 km/h 7 km/h 81% 0.00 mm 0.00 W/m2
11:19 23.6 °C 19.9 °C 1012.5 hPa NW 11 km/h 9 km/h 80% 0.00 mm 0.00 W/m2
11:24 23.8 °C 20.3 °C 1012.5 hPa NW 9 km/h 6 km/h 81% 0.00 mm 0.00 W/m2
11:29 23.8 °C 20.4 °C 1012.4 hPa NW 8 km/h 6 km/h 81% 0.00 mm 0.00 W/m2
11:34 24.1 °C 20.6 °C 1012.4 hPa NW 10 km/h 3 km/h 81% 0.00 mm 0.00 W/m2
11:39 24.4 °C 20.9 °C 1012.4 hPa Calm     81% 0.00 mm 0.00 W/m2
11:44 24.7 °C 21.2 °C 1012.4 hPa Calm     81% 0.00 mm 0.00 W/m2
11:49 24.8 °C 21.2 °C 1012.4 hPa Calm     81% 0.00 mm 0.00 W/m2
11:54 24.8 °C 20.9 °C 1012.3 hPa Calm     79% 0.00 mm 0.00 W/m2
11:59 24.6 °C 20.7 °C 1012.4 hPa Calm     79% 0.00 mm 0.00 W/m2
12:04 24.2 °C 20.3 °C 1012.4 hPa NE 16 km/h 11 km/h 80% 0.00 mm 0.00 W/m2
12:09 23.9 °C 20.4 °C 1012.4 hPa ENE 19 km/h 15 km/h 81% 0.00 mm 0.00 W/m2
12:14 23.9 °C 20.5 °C 1012.3 hPa ENE 21 km/h 18 km/h 81% 0.00 mm 0.00 W/m2
12:19 24.1 °C 20.6 °C 1012.2 hPa ENE 23 km/h 21 km/h 81% 0.00 mm 0.00 W/m2
12:24 24.1 °C 20.7 °C 1012.2 hPa ENE 24 km/h 20 km/h 81% 0.00 mm 0.00 W/m2
12:29 24.1 °C 20.7 °C 1012.1 hPa ENE 23 km/h 20 km/h 81% 0.00 mm 0.00 W/m2
12:34 24.1 °C 20.6 °C 1012.0 hPa ENE 24 km/h 19 km/h 81% 0.00 mm 0.00 W/m2
12:39 24.0 °C 20.3 °C 1011.9 hPa ENE 24 km/h 22 km/h 80% 0.00 mm 0.00 W/m2
12:44 23.9 °C 20.3 °C 1011.9 hPa NE 23 km/h 20 km/h 80% 0.00 mm 0.00 W/m2
12:49 24.2 °C 20.7 °C 1011.9 hPa NE 23 km/h 20 km/h 81% 0.00 mm 0.00 W/m2
12:54 24.4 °C 20.9 °C 1011.9 hPa NE 23 km/h 20 km/h 81% 0.00 mm 0.00 W/m2
12:59 24.8 °C 21.3 °C 1011.9 hPa NE 19 km/h 17 km/h 81% 0.00 mm 0.00 W/m2
13:04 24.8 °C 21.3 °C 1011.9 hPa NE 19 km/h 17 km/h 81% 0.00 mm 0.00 W/m2
13:09 24.9 °C 21.2 °C 1011.8 hPa ENE 23 km/h 20 km/h 80% 0.00 mm 0.00 W/m2
13:14 24.7 °C 20.6 °C 1011.7 hPa NE 23 km/h 20 km/h 79% 0.00 mm 0.00 W/m2
13:19 24.3 °C 20.4 °C 1011.7 hPa NE 26 km/h 21 km/h 79% 0.00 mm 0.00 W/m2
13:24 24.3 °C 20.6 °C 1011.7 hPa NE 24 km/h 21 km/h 80% 0.00 mm 0.00 W/m2
13:29 24.4 °C 20.7 °C 1011.7 hPa NE 22 km/h 20 km/h 80% 0.00 mm 0.00 W/m2
13:34 24.6 °C 21.1 °C 1011.8 hPa NE 23 km/h 19 km/h 81% 0.00 mm 0.00 W/m2
13:39 24.6 °C 20.9 °C 1011.8 hPa NE 23 km/h 20 km/h 80% 0.00 mm 0.00 W/m2
13:44 24.5 °C 20.6 °C 1011.8 hPa ENE 21 km/h 18 km/h 79% 0.00 mm 0.00 W/m2
13:49 24.3 °C 20.2 °C 1011.9 hPa ENE 21 km/h 19 km/h 79% 0.00 mm 0.00 W/m2
13:54 24.1 °C 20.2 °C 1011.8 hPa ENE 20 km/h 18 km/h 79% 0.00 mm 0.00 W/m2
13:59 24.2 °C 20.4 °C 1011.8 hPa ENE 21 km/h 18 km/h 80% 0.00 mm 0.00 W/m2
14:04 24.3 °C 20.7 °C 1011.7 hPa ENE 17 km/h 14 km/h 80% 0.00 mm 0.00 W/m2
14:09 24.5 °C 20.7 °C 1011.6 hPa ESE 17 km/h 11 km/h 80% 0.00 mm 0.00 W/m2
14:14 24.8 °C 21.2 °C 1011.5 hPa ESE 17 km/h 12 km/h 80% 0.00 mm 0.00 W/m2
14:19 25.1 °C 21.3 °C 1011.4 hPa ESE 10 km/h 8 km/h 80% 0.00 mm 0.00 W/m2
14:24 25.3 °C 21.2 °C 1011.4 hPa ESE 17 km/h 12 km/h 78% 0.00 mm 0.00 W/m2
14:29 25.4 °C 21.3 °C 1011.4 hPa ESE 11 km/h 9 km/h 78% 0.00 mm 0.00 W/m2
14:34 25.3 °C 21.0 °C 1011.4 hPa SE 6 km/h 1 km/h 77% 0.00 mm 0.00 W/m2
14:39 25.1 °C 20.5 °C 1011.4 hPa SE 10 km/h 3 km/h 76% 0.00 mm 0.00 W/m2
14:44 24.8 °C 20.4 °C 1011.5 hPa SE 11 km/h 4 km/h 77% 0.00 mm 0.00 W/m2
14:49 24.7 °C 20.4 °C 1011.5 hPa SE 4 km/h   77% 0.00 mm 0.00 W/m2
14:54 24.8 °C 20.4 °C 1011.5 hPa Calm     77% 0.00 mm 0.00 W/m2
14:59 24.8 °C 20.4 °C 1011.6 hPa Calm     77% 0.00 mm 0.00 W/m2
15:04 24.8 °C 20.4 °C 1011.6 hPa Calm     77% 0.00 mm 0.00 W/m2
15:09 24.8 °C 20.5 °C 1011.7 hPa Calm     77% 0.00 mm 0.00 W/m2
15:14 25.3 °C 21.2 °C 1011.7 hPa Calm     78% 0.00 mm 0.00 W/m2
15:19 25.5 °C 21.4 °C 1011.7 hPa SE 8 km/h 7 km/h 78% 0.00 mm 0.00 W/m2
15:24 25.5 °C 21.3 °C 1011.6 hPa SE 10 km/h 9 km/h 78% 0.00 mm 0.00 W/m2
15:29 25.4 °C 21.5 °C 1011.5 hPa SE 9 km/h 8 km/h 79% 0.00 mm 0.00 W/m2
15:34 25.6 °C 21.5 °C 1011.5 hPa SE 8 km/h 7 km/h 78% 0.00 mm 0.00 W/m2
15:39 25.7 °C 21.6 °C 1011.5 hPa SE 6 km/h 4 km/h 78% 0.00 mm 0.00 W/m2
15:44 25.6 °C 21.1 °C 1011.4 hPa SE 6 km/h 3 km/h 77% 0.00 mm 0.00 W/m2
15:49 25.3 °C 20.9 °C 1011.5 hPa SE 8 km/h 5 km/h 77% 0.00 mm 0.00 W/m2
15:54 25.2 °C 21.1 °C 1011.6 hPa Calm     78% 0.00 mm 0.00 W/m2
15:59 25.2 °C 21.1 °C 1011.6 hPa Calm     78% 0.00 mm 0.00 W/m2
16:04 25.1 °C 21.2 °C 1011.5 hPa Calm     79% 0.00 mm 0.00 W/m2
16:09 25.2 °C 21.3 °C 1011.5 hPa Calm     79% 0.00 mm 0.00 W/m2
16:14 25.6 °C 21.7 °C 1011.5 hPa Calm     80% 0.00 mm 0.00 W/m2
16:19 26.1 °C 22.1 °C 1011.4 hPa SE 6 km/h 1 km/h 79% 0.00 mm 0.00 W/m2
16:24 26.4 °C 22.4 °C 1011.3 hPa SE 10 km/h 9 km/h 79% 0.00 mm 0.00 W/m2
16:29 26.4 °C 22.3 °C 1011.3 hPa ESE 11 km/h 10 km/h 78% 0.00 mm 0.00 W/m2
16:34 26.1 °C 21.6 °C 1011.3 hPa ESE 8 km/h 7 km/h 77% 0.00 mm 0.00 W/m2
16:39 25.7 °C 21.6 °C 1011.3 hPa ESE 4 km/h 1 km/h 78% 0.00 mm 0.00 W/m2
16:44 25.8 °C 21.7 °C 1011.3 hPa Calm     78% 0.00 mm 0.00 W/m2
16:49 25.8 °C 21.7 °C 1011.3 hPa Calm     78% 0.00 mm 0.00 W/m2
16:54 25.7 °C 21.6 °C 1011.5 hPa ESE 6 km/h 1 km/h 78% 0.00 mm 0.00 W/m2
16:59 25.9 °C 21.9 °C 1011.5 hPa NNW 21 km/h 10 km/h 79% 0.00 mm 0.00 W/m2
17:04 25.8 °C 21.7 °C 1011.5 hPa WNW 19 km/h 10 km/h 78% 0.00 mm 0.00 W/m2
17:09 25.3 °C 21.0 °C 1011.5 hPa West 23 km/h 13 km/h 78% 0.00 mm 0.00 W/m2
17:14 24.6 °C 20.5 °C 1011.5 hPa WNW 21 km/h 18 km/h 78% 0.00 mm 0.00 W/m2
17:19 23.9 °C 19.8 °C 1011.5 hPa West 24 km/h 15 km/h 80% 0.00 mm 0.00 W/m2
17:24 23.3 °C 19.8 °C 1011.5 hPa WNW 24 km/h 12 km/h 81% 0.00 mm 0.00 W/m2
17:29 23.2 °C 19.7 °C 1011.6 hPa WNW 19 km/h 14 km/h 81% 0.00 mm 0.00 W/m2
17:34 22.9 °C 19.4 °C 1011.6 hPa WNW 19 km/h 11 km/h 81% 0.00 mm 0.00 W/m2
17:39 22.6 °C 19.1 °C 1011.6 hPa WNW 18 km/h 10 km/h 82% 0.00 mm 0.00 W/m2
17:44 22.2 °C 19.0 °C 1011.6 hPa West 19 km/h 10 km/h 82% 0.00 mm 0.00 W/m2
17:49 21.9 °C 18.9 °C 1011.6 hPa West 19 km/h 10 km/h 83% 0.00 mm 0.00 W/m2
17:54 21.7 °C 18.7 °C 1011.6 hPa WNW 24 km/h 14 km/h 83% 0.00 mm 0.00 W/m2
17:59 21.3 °C 18.3 °C 1011.7 hPa WNW 23 km/h 10 km/h 84% 0.00 mm 0.00 W/m2
18:04 21.0 °C 18.2 °C 1011.8 hPa West 21 km/h 10 km/h 84% 0.00 mm 0.00 W/m2
18:09 20.8 °C 18.2 °C 1011.8 hPa West 26 km/h 15 km/h 85% 0.00 mm 0.00 W/m2
18:14 20.8 °C 18.4 °C 1011.6 hPa West 10 km/h 5 km/h 86% 0.00 mm 0.00 W/m2
18:19 20.9 °C 18.5 °C 1011.7 hPa West 13 km/h 6 km/h 86% 0.00 mm 0.00 W/m2
18:24 21.0 °C 18.6 °C 1011.7 hPa WNW 18 km/h 8 km/h 86% 0.00 mm 0.00 W/m2
18:29 21.0 °C 18.6 °C 1011.5 hPa West 19 km/h 4 km/h 86% 0.00 mm 0.00 W/m2
18:34 21.0 °C 18.6 °C 1011.5 hPa WNW 19 km/h 8 km/h 86% 0.00 mm 0.00 W/m2
18:39 20.9 °C 18.5 °C 1011.5 hPa WNW 19 km/h 8 km/h 86% 0.00 mm 0.00 W/m2
18:44 20.8 °C 18.4 °C 1011.5 hPa NW 19 km/h 8 km/h 86% 0.00 mm 0.00 W/m2
18:49 20.8 °C 18.4 °C 1011.4 hPa WNW 15 km/h 6 km/h 86% 0.00 mm 0.00 W/m2
18:54 20.8 °C 18.4 °C 1011.6 hPa West 21 km/h 10 km/h 86% 0.00 mm 0.00 W/m2
18:59 20.8 °C 18.4 °C 1011.9 hPa West 11 km/h 7 km/h 86% 0.00 mm 0.00 W/m2
19:04 20.9 °C 18.4 °C 1012.2 hPa WSW 11 km/h 7 km/h 86% 0.00 mm 0.00 W/m2
19:09 20.9 °C 18.4 °C 1012.3 hPa WSW 19 km/h 4 km/h 86% 0.51 mm 0.00 W/m2
19:14 20.8 °C 18.4 °C 1012.4 hPa WSW 30 km/h 17 km/h 86% 7.11 mm 0.00 W/m2
Vejrstation Sortsø Strand
Compliments of Weather Underground - 2 mb

© 2006-2022 strandvejr.dk